sensor_id;sensor_type;location;lat;lon;timestamp;temperature;humidity
11136;DHT22;5622;50.840;4.948;2023-05-07T08:26:19;17.20;99.90
11136;DHT22;5622;50.840;4.948;2023-05-07T08:28:46;17.20;99.90
11136;DHT22;5622;50.840;4.948;2023-05-07T08:41:36;17.50;99.90
11136;DHT22;5622;50.840;4.948;2023-05-07T08:44:17;17.60;99.90
11136;DHT22;5622;50.840;4.948;2023-05-07T08:47:06;17.50;99.90
11136;DHT22;5622;50.840;4.948;2023-05-07T08:59:57;17.50;99.90
11136;DHT22;5622;50.840;4.948;2023-05-07T11:40:52;16.90;99.90
11136;DHT22;5622;50.840;4.948;2023-05-07T11:43:37;16.90;99.90
11136;DHT22;5622;50.840;4.948;2023-05-07T11:46:09;16.90;99.90
11136;DHT22;5622;50.840;4.948;2023-05-07T11:48:40;16.90;99.90
11136;DHT22;5622;50.840;4.948;2023-05-07T11:51:20;16.90;99.90
11136;DHT22;5622;50.840;4.948;2023-05-07T11:53:52;16.90;99.90
11136;DHT22;5622;50.840;4.948;2023-05-07T11:56:33;16.90;99.90
11136;DHT22;5622;50.840;4.948;2023-05-07T11:59:05;17.00;99.90
11136;DHT22;5622;50.840;4.948;2023-05-07T12:01:39;16.90;99.90
11136;DHT22;5622;50.840;4.948;2023-05-07T12:04:20;17.00;99.90
11136;DHT22;5622;50.840;4.948;2023-05-07T12:07:24;17.00;99.90
11136;DHT22;5622;50.840;4.948;2023-05-07T12:10:06;16.90;99.90
11136;DHT22;5622;50.840;4.948;2023-05-07T12:13:12;16.90;99.90
11136;DHT22;5622;50.840;4.948;2023-05-07T12:16:11;15.90;99.90
11136;DHT22;5622;50.840;4.948;2023-05-07T12:18:54;17.10;99.90
11136;DHT22;5622;50.840;4.948;2023-05-07T12:21:31;17.20;99.90
11136;DHT22;5622;50.840;4.948;2023-05-07T12:24:27;17.10;99.90
11136;DHT22;5622;50.840;4.948;2023-05-07T12:27:27;17.10;99.90
11136;DHT22;5622;50.840;4.948;2023-05-07T12:30:17;17.10;99.90
11136;DHT22;5622;50.840;4.948;2023-05-07T12:33:07;16.90;99.90
11136;DHT22;5622;50.840;4.948;2023-05-07T12:35:44;17.00;99.90
11136;DHT22;5622;50.840;4.948;2023-05-07T12:38:23;17.10;99.90
11136;DHT22;5622;50.840;4.948;2023-05-07T12:41:01;17.10;99.90
11136;DHT22;5622;50.840;4.948;2023-05-07T12:43:47;17.30;99.90
11136;DHT22;5622;50.840;4.948;2023-05-07T12:46:31;17.10;99.90
11136;DHT22;5622;50.840;4.948;2023-05-07T12:49:05;17.10;99.90
11136;DHT22;5622;50.840;4.948;2023-05-07T12:52:06;17.20;99.90
11136;DHT22;5622;50.840;4.948;2023-05-07T12:55:11;17.20;99.90
11136;DHT22;5622;50.840;4.948;2023-05-07T12:58:02;17.30;99.90
11136;DHT22;5622;50.840;4.948;2023-05-07T13:00:37;17.30;99.90
11136;DHT22;5622;50.840;4.948;2023-05-07T13:03:29;17.20;99.90
11136;DHT22;5622;50.840;4.948;2023-05-07T13:06:14;17.30;99.90
11136;DHT22;5622;50.840;4.948;2023-05-07T13:08:50;17.20;99.90
11136;DHT22;5622;50.840;4.948;2023-05-07T13:11:26;17.30;99.90
11136;DHT22;5622;50.840;4.948;2023-05-07T13:13:57;17.30;99.90
11136;DHT22;5622;50.840;4.948;2023-05-07T13:16:37;17.30;99.90
11136;DHT22;5622;50.840;4.948;2023-05-07T13:19:16;17.40;99.90
11136;DHT22;5622;50.840;4.948;2023-05-07T13:21:47;17.30;99.90
11136;DHT22;5622;50.840;4.948;2023-05-07T13:24:19;17.40;99.90
11136;DHT22;5622;50.840;4.948;2023-05-07T13:26:50;17.30;99.90
11136;DHT22;5622;50.840;4.948;2023-05-07T13:29:19;17.30;99.90
11136;DHT22;5622;50.840;4.948;2023-05-07T13:31:57;17.40;99.90
11136;DHT22;5622;50.840;4.948;2023-05-07T13:34:43;17.30;99.90
11136;DHT22;5622;50.840;4.948;2023-05-07T13:37:25;17.60;99.90
11136;DHT22;5622;50.840;4.948;2023-05-07T13:39:59;17.40;99.90
11136;DHT22;5622;50.840;4.948;2023-05-07T13:42:30;17.40;99.90
11136;DHT22;5622;50.840;4.948;2023-05-07T13:45:02;17.50;99.90
11136;DHT22;5622;50.840;4.948;2023-05-07T13:47:35;17.40;99.90
11136;DHT22;5622;50.840;4.948;2023-05-07T13:50:08;17.40;99.90
11136;DHT22;5622;50.840;4.948;2023-05-07T13:52:37;17.40;99.90
11136;DHT22;5622;50.840;4.948;2023-05-07T13:55:07;17.50;99.90
11136;DHT22;5622;50.840;4.948;2023-05-07T13:57:37;17.50;99.90
11136;DHT22;5622;50.840;4.948;2023-05-07T14:00:09;17.60;99.90
11136;DHT22;5622;50.840;4.948;2023-05-07T14:02:40;17.50;99.90
11136;DHT22;5622;50.840;4.948;2023-05-07T14:05:13;17.60;99.90
11136;DHT22;5622;50.840;4.948;2023-05-07T14:07:46;17.50;99.90
11136;DHT22;5622;50.840;4.948;2023-05-07T14:10:17;17.50;99.90
11136;DHT22;5622;50.840;4.948;2023-05-07T14:12:51;17.50;99.90
11136;DHT22;5622;50.840;4.948;2023-05-07T14:15:22;17.50;99.90
11136;DHT22;5622;50.840;4.948;2023-05-07T14:17:53;17.50;99.90
11136;DHT22;5622;50.840;4.948;2023-05-07T14:20:25;17.60;99.90
11136;DHT22;5622;50.840;4.948;2023-05-07T14:22:52;17.50;99.90
11136;DHT22;5622;50.840;4.948;2023-05-07T14:25:20;17.50;99.90
11136;DHT22;5622;50.840;4.948;2023-05-07T14:43:41;17.60;99.90
11136;DHT22;5622;50.840;4.948;2023-05-07T15:27:36;17.60;99.90
11136;DHT22;5622;50.840;4.948;2023-05-07T17:49:18;17.50;99.90
11136;DHT22;5622;50.840;4.948;2023-05-07T17:51:50;17.50;99.90
